createdAt,value
2019-02-28T00:02:10.228Z,10.67
2019-02-28T00:04:38.803Z,11.53
2019-02-28T00:07:07.390Z,11.87
2019-02-28T00:09:36.249Z,10.77
2019-02-28T00:12:13.189Z,11.27
2019-02-28T00:14:40.685Z,10.13
2019-02-28T00:17:09.888Z,13.03
2019-02-28T00:19:41.638Z,11.87
2019-02-28T00:22:14.664Z,11.53
2019-02-28T00:24:46.167Z,10.33
2019-02-28T00:27:14.748Z,10.00
2019-02-28T00:29:46.232Z,9.97
2019-02-28T00:32:14.814Z,8.87
2019-02-28T00:34:46.014Z,11.20
2019-02-28T00:37:14.602Z,10.80
2019-02-28T00:39:43.171Z,10.40
2019-02-28T00:42:11.756Z,11.27
2019-02-28T00:44:43.483Z,10.20
2019-02-28T00:47:16.404Z,11.00
2019-02-28T00:49:45.120Z,12.57
2019-02-28T00:52:17.330Z,10.53
2019-02-28T00:54:48.861Z,10.40
2019-02-28T00:57:17.447Z,9.73
2019-02-28T00:59:46.029Z,10.53
2019-02-28T01:02:18.489Z,9.40
2019-02-28T01:04:47.436Z,10.73
2019-02-28T01:07:19.083Z,10.00
2019-02-28T01:10:08.588Z,12.60
2019-02-28T01:12:53.345Z,9.83
2019-02-28T01:15:20.249Z,9.10
2019-02-28T01:17:52.357Z,10.30
2019-02-28T01:23:21.869Z,10.17
2019-02-28T01:25:53.565Z,9.23
2019-02-28T01:28:27.838Z,8.60
2019-02-28T01:30:59.446Z,10.07
2019-02-28T01:33:29.664Z,11.73
2019-02-28T01:35:58.204Z,9.37
2019-02-28T01:38:26.767Z,9.60
2019-02-28T01:40:58.250Z,8.27
2019-02-28T01:43:29.609Z,9.57
2019-02-28T01:46:01.160Z,7.40
2019-02-28T01:48:32.509Z,8.43
2019-02-28T01:51:04.052Z,8.23
2019-02-28T01:53:32.645Z,8.43
2019-02-28T01:56:04.107Z,8.00
2019-02-28T01:58:32.692Z,10.23
2019-02-28T02:01:04.011Z,9.40
2019-02-28T02:03:32.575Z,8.80
2019-02-28T02:06:01.109Z,8.57
2019-02-28T02:08:29.688Z,8.17
2019-02-28T02:11:01.433Z,8.10
2019-02-28T02:13:36.679Z,9.47
2019-02-28T02:16:06.584Z,8.47
2019-02-28T02:18:35.165Z,7.50
2019-02-28T02:21:03.726Z,7.30
2019-02-28T02:23:35.075Z,9.17
2019-02-28T02:26:03.634Z,7.80
2019-02-28T02:28:34.938Z,7.23
2019-02-28T02:31:03.566Z,8.00
2019-02-28T02:33:33.245Z,7.33
2019-02-28T02:36:04.660Z,8.10
2019-02-28T02:38:40.176Z,8.77
2019-02-28T02:41:04.894Z,9.37
2019-02-28T02:43:33.663Z,7.20
2019-02-28T02:46:05.235Z,9.20
2019-02-28T02:48:38.600Z,8.40
2019-02-28T02:51:10.999Z,8.60
2019-02-28T02:53:41.909Z,7.33
2019-02-28T02:56:10.470Z,7.87
2019-02-28T02:58:42.026Z,7.90
2019-02-28T03:01:13.342Z,7.27
2019-02-28T03:03:44.300Z,6.60
2019-02-28T03:06:14.885Z,8.90
2019-02-28T03:08:46.797Z,8.20
2019-02-28T03:11:15.714Z,8.13
2019-02-28T03:13:47.274Z,7.30
2019-02-28T03:16:15.836Z,6.57
2019-02-28T03:18:47.287Z,8.07
2019-02-28T03:21:18.623Z,7.10
2019-02-28T03:23:50.360Z,6.77
2019-02-28T03:26:21.834Z,7.33
2019-02-28T03:28:50.420Z,7.63
2019-02-28T03:31:19.005Z,7.13
2019-02-28T03:33:48.462Z,6.80
2019-02-28T03:36:17.051Z,8.47
2019-02-28T03:38:49.788Z,7.43
2019-02-28T03:41:18.645Z,7.03
2019-02-28T03:43:50.307Z,7.70
2019-02-28T03:46:21.593Z,7.20
2019-02-28T03:48:50.172Z,6.80
2019-02-28T03:51:21.668Z,7.20
2019-02-28T03:53:56.006Z,8.63
2019-02-28T03:56:26.523Z,8.23
2019-02-28T03:58:58.410Z,8.00
2019-02-28T04:01:29.968Z,7.67
2019-02-28T04:03:58.520Z,7.73
2019-02-28T04:06:30.304Z,7.60
2019-02-28T04:09:07.249Z,7.63
2019-02-28T04:11:32.255Z,7.40
2019-02-28T04:14:04.044Z,8.90
2019-02-28T04:16:35.364Z,7.43
2019-02-28T04:19:07.035Z,7.27
2019-02-28T04:21:38.843Z,8.53
2019-02-28T04:24:12.653Z,7.83
2019-02-28T04:26:37.733Z,8.73
2019-02-28T04:29:06.263Z,8.13
2019-02-28T04:31:37.518Z,8.37
2019-02-28T04:34:13.019Z,7.20
2019-02-28T04:36:37.097Z,8.57
2019-02-28T04:39:09.620Z,7.83
2019-02-28T04:47:30.570Z,7.20
2019-02-28T04:52:48.016Z,7.67
2019-02-28T04:57:51.572Z,9.03
2019-02-28T05:00:23.653Z,8.87
2019-02-28T05:02:54.881Z,8.10
2019-02-28T05:05:22.919Z,7.77
2019-02-28T05:07:54.414Z,7.57
2019-02-28T05:10:23.353Z,8.40
2019-02-28T05:12:51.933Z,8.90
2019-02-28T05:15:20.581Z,8.47
2019-02-28T05:17:53.141Z,7.80
2019-02-28T05:20:22.179Z,8.90
2019-02-28T05:22:53.543Z,8.80
2019-02-28T05:25:26.214Z,9.73
2019-02-28T05:27:57.558Z,9.50
2019-02-28T05:30:28.807Z,8.10
2019-02-28T05:33:00.228Z,8.80
2019-02-28T05:35:28.801Z,8.10
2019-02-28T05:38:00.065Z,9.23
2019-02-28T05:40:31.372Z,8.57
2019-02-28T05:43:02.937Z,8.67
2019-02-28T05:45:31.504Z,9.67
2019-02-28T05:48:03.879Z,9.50
2019-02-28T05:50:33.557Z,8.90
2019-02-28T05:53:06.283Z,8.60
2019-02-28T05:55:35.477Z,10.10
2019-02-28T05:58:07.010Z,9.50
2019-02-28T06:00:38.332Z,9.47
2019-02-28T06:03:09.138Z,9.50
2019-02-28T06:15:48.613Z,12.60
2019-02-28T06:23:23.523Z,11.00
2019-02-28T06:24:05.629Z,12.13
2019-02-28T06:26:42.635Z,11.57
2019-02-28T06:29:14.815Z,9.90
2019-02-28T06:31:45.475Z,12.10
2019-02-28T06:34:14.270Z,11.87
2019-02-28T06:36:43.053Z,12.00
2019-02-28T06:39:23.127Z,10.97
2019-02-28T06:41:51.778Z,12.30
2019-02-28T06:44:27.004Z,15.20
2019-02-28T06:46:56.202Z,13.63
2019-02-28T06:49:30.185Z,12.40
2019-02-28T06:52:10.217Z,12.27
2019-02-28T06:55:25.170Z,14.73
2019-02-28T07:03:53.544Z,13.33
2019-02-28T07:06:25.129Z,14.80
2019-02-28T07:08:53.918Z,16.50
2019-02-28T07:11:22.479Z,14.40
2019-02-28T07:13:51.053Z,15.83
2019-02-28T07:16:22.841Z,16.87
2019-02-28T07:18:54.106Z,16.03
2019-02-28T07:21:22.990Z,17.70
2019-02-28T07:23:54.292Z,17.90
2019-02-28T07:26:25.842Z,17.37
2019-02-28T07:28:57.370Z,17.80
2019-02-28T07:31:28.853Z,17.93
2019-02-28T07:33:57.433Z,17.67
2019-02-28T07:36:26.018Z,19.70
2019-02-28T07:38:57.910Z,19.27
2019-02-28T07:41:29.384Z,19.80
2019-02-28T07:44:03.256Z,20.10
2019-02-28T07:46:34.840Z,23.43
2019-02-28T07:52:13.885Z,21.90
2019-02-28T08:00:20.586Z,25.70
2019-02-28T08:02:58.488Z,27.30
2019-02-28T08:05:34.079Z,25.10
2019-02-28T08:08:04.182Z,28.13
2019-02-28T08:10:35.860Z,24.83
2019-02-28T08:13:04.423Z,26.20
2019-02-28T08:15:33.488Z,29.53
2019-02-28T08:18:05.856Z,29.13
2019-02-28T08:20:34.874Z,30.63
2019-02-28T08:23:06.225Z,28.17
2019-02-28T08:25:35.215Z,30.67
2019-02-28T08:28:04.178Z,32.40
2019-02-28T08:30:34.777Z,28.87
2019-02-28T08:33:16.495Z,28.37
2019-02-28T08:36:31.440Z,30.37
2019-02-28T08:39:18.078Z,29.90
2019-02-28T08:41:40.506Z,30.50
2019-02-28T08:44:58.162Z,29.97
2019-02-28T08:47:21.871Z,29.60
2019-02-28T08:49:50.664Z,31.80
2019-02-28T08:52:22.186Z,32.00
2019-02-28T08:54:50.759Z,31.20
2019-02-28T08:57:22.026Z,33.17
2019-02-28T08:59:52.522Z,29.00
2019-02-28T09:02:23.419Z,33.00
2019-02-28T09:04:54.908Z,35.40
2019-02-28T09:07:26.579Z,32.40
2019-02-28T09:09:57.848Z,30.40
2019-02-28T09:12:29.887Z,33.50
2019-02-28T09:15:03.976Z,32.73
2019-02-28T09:17:35.645Z,32.10
2019-02-28T09:20:07.445Z,31.07
2019-02-28T09:22:36.973Z,34.03
2019-02-28T09:25:08.543Z,32.90
2019-02-28T09:27:40.057Z,31.70
2019-02-28T09:30:15.027Z,34.17
2019-02-28T09:32:48.158Z,33.47
2019-02-28T09:35:16.970Z,32.60
2019-02-28T09:37:48.250Z,34.00
2019-02-28T09:40:19.996Z,32.23
2019-02-28T09:42:51.164Z,32.30
2019-02-28T09:45:24.365Z,34.80
2019-02-28T09:48:00.791Z,32.67
2019-02-28T09:50:26.695Z,34.07
2019-02-28T09:52:58.043Z,33.87
2019-02-28T09:55:26.799Z,33.33
2019-02-28T09:57:58.171Z,32.87
2019-02-28T10:00:32.312Z,34.63
2019-02-28T10:03:10.142Z,33.80
2019-02-28T10:05:42.355Z,34.90
2019-02-28T10:08:09.420Z,34.03
2019-02-28T10:10:40.796Z,31.13
2019-02-28T10:13:14.541Z,33.50
2019-02-28T10:15:42.475Z,31.57
2019-02-28T10:18:14.248Z,31.10
2019-02-28T10:20:43.328Z,32.50
2019-02-28T10:23:11.874Z,31.97
2019-02-28T10:25:43.719Z,31.83
2019-02-28T10:28:15.371Z,31.60
2019-02-28T10:30:47.254Z,33.67
2019-02-28T10:33:20.293Z,28.40
2019-02-28T10:35:48.861Z,31.57
2019-02-28T10:38:17.503Z,29.27
2019-02-28T10:40:49.323Z,30.97
2019-02-28T10:43:19.077Z,27.80
2019-02-28T10:45:47.658Z,28.97
2019-02-28T10:48:19.211Z,30.40
2019-02-28T10:50:51.394Z,29.50
2019-02-28T10:53:23.013Z,30.53
2019-02-28T10:55:58.027Z,26.73
2019-02-28T10:58:25.793Z,27.50
2019-02-28T11:00:57.569Z,25.80
2019-02-28T11:03:31.757Z,29.50
2019-02-28T11:06:02.361Z,30.07
2019-02-28T11:08:36.873Z,30.20
2019-02-28T11:11:07.349Z,30.97
2019-02-28T11:13:38.789Z,29.43
2019-02-28T11:16:10.209Z,28.67
2019-02-28T11:18:42.753Z,26.77
2019-02-28T11:21:15.208Z,25.57
2019-02-28T11:23:50.086Z,29.70
2019-02-28T11:26:20.135Z,26.73
2019-02-28T11:28:51.693Z,25.93
2019-02-28T11:31:23.170Z,27.93
2019-02-28T11:33:54.543Z,26.60
2019-02-28T11:36:23.357Z,27.90
2019-02-28T11:38:55.440Z,29.37
2019-02-28T11:41:27.593Z,29.60
2019-02-28T11:43:56.512Z,29.53
2019-02-28T11:46:28.164Z,24.00
2019-02-28T11:48:59.447Z,27.23
2019-02-28T11:51:28.065Z,28.00
2019-02-28T11:54:03.565Z,27.40
2019-02-28T11:56:35.054Z,26.97
2019-02-28T11:59:09.507Z,29.07
2019-02-28T12:01:42.431Z,28.73
2019-02-28T12:04:14.444Z,28.03
2019-02-28T12:06:46.083Z,26.83
2019-02-28T12:09:16.263Z,29.33
2019-02-28T12:12:04.077Z,26.77
2019-02-28T12:20:40.862Z,28.60
2019-02-28T12:23:12.438Z,27.17
2019-02-28T12:25:43.727Z,28.30
2019-02-28T12:28:18.169Z,27.50
2019-02-28T12:30:46.780Z,28.40
2019-02-28T12:33:19.597Z,31.40
2019-02-28T12:35:48.706Z,33.53
2019-02-28T12:38:20.242Z,30.33
2019-02-28T12:40:52.177Z,31.07
2019-02-28T12:43:20.764Z,27.80
2019-02-28T12:45:49.593Z,30.17
2019-02-28T12:48:21.185Z,33.83
2019-02-28T13:06:59.529Z,32.17
2019-02-28T13:09:30.138Z,27.50
2019-02-28T13:12:01.293Z,29.43
2019-02-28T13:14:29.917Z,28.00
2019-02-28T13:17:00.787Z,29.20
2019-02-28T13:19:32.520Z,30.70
2019-02-28T13:22:07.064Z,29.63
2019-02-28T13:24:38.510Z,31.23
2019-02-28T13:27:10.868Z,28.67
2019-02-28T13:29:42.127Z,28.23
2019-02-28T13:32:13.468Z,27.37
2019-02-28T13:34:42.017Z,27.20
2019-02-28T13:37:11.563Z,31.03
2019-02-28T13:39:44.719Z,29.27
2019-02-28T13:42:15.807Z,28.80
2019-02-28T13:44:44.376Z,26.90
2019-02-28T13:47:15.608Z,28.13
2019-02-28T13:49:49.847Z,29.30
2019-02-28T13:52:20.522Z,29.37
2019-02-28T13:54:50.579Z,31.27
2019-02-28T13:57:23.678Z,29.30
2019-02-28T13:59:54.965Z,31.63
2019-02-28T14:02:29.855Z,28.83
2019-02-28T14:05:04.232Z,27.33
2019-02-28T14:07:35.590Z,30.97
2019-02-28T14:10:11.405Z,28.13
2019-02-28T14:12:40.359Z,30.20
2019-02-28T14:15:48.051Z,30.67
2019-02-28T14:18:18.249Z,30.93
2019-02-28T14:20:49.826Z,29.60
2019-02-28T14:23:21.658Z,32.00
2019-02-28T14:25:53.598Z,29.40
2019-02-28T14:28:25.383Z,32.03
2019-02-28T14:30:54.376Z,28.93
2019-02-28T14:33:24.487Z,29.57
2019-02-28T14:35:53.952Z,30.73
2019-02-28T14:38:26.147Z,32.73
2019-02-28T14:40:59.351Z,28.77
2019-02-28T14:43:33.161Z,31.70
2019-02-28T14:46:01.709Z,30.07
2019-02-28T14:48:36.622Z,32.33
2019-02-28T14:51:06.741Z,31.70
2019-02-28T14:53:35.317Z,29.53
2019-02-28T14:56:08.223Z,32.43
2019-02-28T14:58:39.849Z,28.40
2019-02-28T15:01:16.818Z,28.73
2019-02-28T15:03:45.183Z,30.87
2019-02-28T15:06:13.770Z,27.87
2019-02-28T15:08:47.429Z,29.90
2019-02-28T15:11:18.582Z,28.27
2019-02-28T15:13:50.365Z,28.93
2019-02-28T15:16:21.739Z,27.40
2019-02-28T15:18:51.228Z,28.10
2019-02-28T15:21:19.937Z,29.27
2019-02-28T15:23:51.541Z,27.10
2019-02-28T15:26:23.419Z,28.80
2019-02-28T15:28:55.020Z,31.00
2019-02-28T15:31:26.607Z,27.37
2019-02-28T15:33:58.591Z,27.77
2019-02-28T15:36:27.511Z,29.40
2019-02-28T15:38:58.805Z,27.13
2019-02-28T15:41:30.737Z,27.10
2019-02-28T15:44:03.682Z,30.60
2019-02-28T15:46:36.008Z,29.27
2019-02-28T15:49:10.178Z,28.93
2019-02-28T15:51:40.821Z,27.90
2019-02-28T15:54:12.300Z,31.17
2019-02-28T15:56:43.679Z,30.30
2019-02-28T15:59:15.652Z,29.00
2019-02-28T16:01:46.928Z,27.10
2019-02-28T16:04:18.425Z,29.13
2019-02-28T16:06:56.362Z,26.60
2019-02-28T16:09:21.449Z,27.60
2019-02-28T16:11:50.414Z,28.70
2019-02-28T16:14:21.891Z,28.70
2019-02-28T16:16:50.506Z,30.70
2019-02-28T16:19:22.728Z,29.53
2019-02-28T16:21:51.357Z,27.37
2019-02-28T16:24:20.153Z,28.30
2019-02-28T16:26:53.475Z,29.40
2019-02-28T16:29:22.099Z,28.63
2019-02-28T16:31:51.203Z,28.87
2019-02-28T16:34:22.791Z,28.57
2019-02-28T16:36:51.375Z,31.00
2019-02-28T16:39:19.999Z,29.10
2019-02-28T16:41:51.584Z,31.70
2019-02-28T16:44:22.827Z,32.70
2019-02-28T16:46:54.425Z,30.83
2019-02-28T16:49:23.396Z,33.97
2019-02-28T16:51:54.683Z,34.43
2019-02-28T16:54:27.841Z,37.50
2019-02-28T16:56:59.235Z,35.17
2019-02-28T16:59:31.740Z,43.80
2019-02-28T17:02:01.109Z,37.03
2019-02-28T17:04:29.717Z,32.93
2019-02-28T17:07:02.708Z,34.57
2019-02-28T17:09:37.333Z,33.47
2019-02-28T17:12:07.490Z,31.93
2019-02-28T17:14:39.358Z,37.27
2019-02-28T17:17:11.829Z,38.33
2019-02-28T17:19:42.935Z,39.67
2019-02-28T17:22:14.615Z,38.53
2019-02-28T17:24:46.954Z,39.77
2019-02-28T17:27:25.858Z,35.93
2019-02-28T17:30:00.460Z,37.03
2019-02-28T17:32:32.317Z,35.10
2019-02-28T17:35:04.285Z,36.13
2019-02-28T17:37:33.817Z,36.73
2019-02-28T17:40:08.751Z,38.67
2019-02-28T17:42:40.166Z,38.40
2019-02-28T17:45:16.261Z,38.10
2019-02-28T17:48:12.694Z,38.37
2019-02-28T17:50:51.012Z,38.57
2019-02-28T17:53:52.658Z,39.40
2019-02-28T17:56:40.844Z,42.30
2019-02-28T17:59:19.395Z,39.10
2019-02-28T18:01:56.982Z,39.43
2019-02-28T18:04:56.106Z,36.87
2019-02-28T18:07:33.037Z,38.27
2019-02-28T18:10:16.063Z,40.67
2019-02-28T18:13:02.646Z,41.30
2019-02-28T18:15:34.334Z,41.73
2019-02-28T18:18:41.552Z,39.53
2019-02-28T18:21:29.840Z,38.13
2019-02-28T18:24:18.169Z,40.43
2019-02-28T18:27:08.428Z,40.40
2019-02-28T18:30:00.651Z,39.77
2019-02-28T18:32:29.716Z,41.30
2019-02-28T18:35:02.286Z,39.40
2019-02-28T18:37:30.895Z,44.37
2019-02-28T18:40:02.384Z,45.77
2019-02-28T18:42:33.650Z,42.70
2019-02-28T18:45:10.285Z,40.80
2019-02-28T18:47:39.746Z,40.67
2019-02-28T18:50:12.546Z,43.13
2019-02-28T18:52:43.825Z,42.67
2019-02-28T18:55:15.503Z,40.87
2019-02-28T18:57:47.192Z,45.47
2019-02-28T19:00:20.210Z,40.13
2019-02-28T19:02:48.821Z,45.10
2019-02-28T19:05:17.546Z,41.40
2019-02-28T19:07:46.963Z,43.77
2019-02-28T19:10:18.840Z,44.53
2019-02-28T19:12:50.385Z,42.70
2019-02-28T19:15:21.918Z,44.60
2019-02-28T19:17:53.495Z,41.13
2019-02-28T19:20:25.483Z,45.27
2019-02-28T19:22:54.093Z,43.13
2019-02-28T19:25:25.687Z,45.87
2019-02-28T19:27:57.048Z,41.83
2019-02-28T19:30:28.934Z,43.00
2019-02-28T19:33:00.618Z,40.70
2019-02-28T19:35:32.236Z,40.93
2019-02-28T19:38:01.191Z,40.80
2019-02-28T19:40:29.856Z,40.60
2019-02-28T19:42:58.787Z,38.87
2019-02-28T19:45:33.956Z,44.03
2019-02-28T19:48:05.330Z,39.43
2019-02-28T19:50:34.457Z,42.60
2019-02-28T19:53:07.982Z,40.80
2019-02-28T19:55:38.870Z,38.37
2019-02-28T19:58:08.003Z,42.67
2019-02-28T20:00:37.302Z,38.87
2019-02-28T20:03:08.733Z,40.13
2019-02-28T20:05:40.223Z,40.70
2019-02-28T20:08:08.848Z,41.17
2019-02-28T20:10:40.738Z,43.00
2019-02-28T20:13:09.555Z,42.27
2019-02-28T20:15:41.562Z,40.20
2019-02-28T20:18:10.494Z,43.70
2019-02-28T20:20:45.410Z,40.33
2019-02-28T20:23:14.182Z,43.50
2019-02-28T20:25:45.957Z,44.57
2019-02-28T20:28:17.352Z,42.40
2019-02-28T20:30:47.570Z,43.70
2019-02-28T20:33:16.232Z,41.77
2019-02-28T20:35:45.161Z,42.70
2019-02-28T20:38:14.193Z,45.23
2019-02-28T20:40:46.282Z,38.97
2019-02-28T20:43:14.893Z,41.47
2019-02-28T20:45:43.998Z,38.07
2019-02-28T20:48:12.753Z,42.10
2019-02-28T20:50:47.504Z,37.83
2019-02-28T20:53:18.883Z,40.60
2019-02-28T20:55:50.562Z,40.97
2019-02-28T20:58:22.146Z,45.37
2019-02-28T21:00:53.823Z,37.97
2019-02-28T21:03:22.442Z,40.00
2019-02-28T21:05:51.280Z,36.47
2019-02-28T21:08:22.638Z,41.00
2019-02-28T21:10:51.454Z,36.80
2019-02-28T21:13:22.723Z,38.93
2019-02-28T21:15:54.097Z,39.50
2019-02-28T21:18:25.480Z,39.90
2019-02-28T21:20:54.103Z,38.97
2019-02-28T21:23:23.143Z,41.27
2019-02-28T21:25:52.189Z,38.80
2019-02-28T21:28:20.912Z,41.30
2019-02-28T21:30:49.489Z,38.77
2019-02-28T21:33:18.104Z,39.70
2019-02-28T21:35:50.001Z,34.60
2019-02-28T21:38:18.706Z,37.73
2019-02-28T21:40:47.421Z,37.20
2019-02-28T21:43:18.689Z,38.10
2019-02-28T21:45:47.297Z,36.53
2019-02-28T21:48:15.924Z,37.87
2019-02-28T21:50:47.401Z,38.47
2019-02-28T21:53:18.989Z,37.57
2019-02-28T21:55:50.661Z,37.30
2019-02-28T21:58:21.949Z,37.67
2019-02-28T22:00:53.221Z,37.67
2019-02-28T22:03:24.692Z,37.77
2019-02-28T22:05:56.068Z,34.90
2019-02-28T22:08:27.726Z,38.73
2019-02-28T22:10:59.227Z,35.40
2019-02-28T22:13:30.807Z,38.00
2019-02-28T22:15:59.414Z,36.07
2019-02-28T22:18:30.897Z,37.47
2019-02-28T22:21:02.476Z,35.27
2019-02-28T22:23:34.264Z,34.13
2019-02-28T22:26:05.644Z,35.50
2019-02-28T22:28:38.998Z,35.43
2019-02-28T22:31:12.215Z,38.40
2019-02-28T22:33:45.431Z,33.60
2019-02-28T22:36:27.453Z,33.40
2019-02-28T22:38:56.471Z,34.67
2019-02-28T22:41:28.256Z,36.20
2019-02-28T22:43:56.869Z,35.70
2019-02-28T22:46:25.681Z,32.47
2019-02-28T22:48:54.292Z,35.13
2019-02-28T22:51:25.871Z,33.57
2019-02-28T22:53:54.483Z,34.90
2019-02-28T22:56:26.078Z,32.60
2019-02-28T22:58:57.764Z,34.67
2019-02-28T23:01:29.629Z,35.17
2019-02-28T23:03:58.263Z,33.90
2019-02-28T23:06:26.829Z,37.53
2019-02-28T23:08:58.454Z,35.57
2019-02-28T23:11:29.935Z,37.43
2019-02-28T23:14:01.494Z,36.37
2019-02-28T23:16:30.119Z,35.13
2019-02-28T23:19:01.492Z,34.03
2019-02-28T23:21:30.053Z,33.63
2019-02-28T23:24:01.481Z,34.97
2019-02-28T23:26:30.091Z,33.17
2019-02-28T23:29:01.721Z,34.90
2019-02-28T23:31:42.499Z,34.37
2019-02-28T23:34:17.513Z,34.30
2019-02-28T23:36:46.095Z,33.07
2019-02-28T23:39:14.719Z,35.17
2019-02-28T23:41:43.666Z,36.00
2019-02-28T23:44:12.632Z,35.50
2019-02-28T23:46:41.915Z,31.40
2019-02-28T23:49:10.501Z,32.60
2019-02-28T23:51:42.025Z,35.63
2019-02-28T23:54:10.604Z,33.03
2019-02-28T23:56:42.121Z,33.43
2019-02-28T23:59:10.701Z,35.43
